sensor_id;sensor_type;location;lat;lon;timestamp;P1;durP1;ratioP1;P2;durP2;ratioP2
39968;SDS011;25648;47.808;19.004;2022-07-29T00:01:52;6.43;;;5.10;;
39968;SDS011;25648;47.808;19.004;2022-07-29T00:04:18;8.20;;;4.93;;
39968;SDS011;25648;47.808;19.004;2022-07-29T00:06:44;5.90;;;4.93;;
39968;SDS011;25648;47.808;19.004;2022-07-29T00:09:10;6.88;;;5.10;;
39968;SDS011;25648;47.808;19.004;2022-07-29T00:11:36;8.65;;;5.32;;
39968;SDS011;25648;47.808;19.004;2022-07-29T00:14:01;8.32;;;5.18;;
39968;SDS011;25648;47.808;19.004;2022-07-29T00:16:27;7.57;;;4.80;;
39968;SDS011;25648;47.808;19.004;2022-07-29T00:18:53;7.63;;;5.20;;
39968;SDS011;25648;47.808;19.004;2022-07-29T00:21:18;6.30;;;5.07;;
39968;SDS011;25648;47.808;19.004;2022-07-29T00:23:44;6.13;;;4.88;;
39968;SDS011;25648;47.808;19.004;2022-07-29T00:26:10;9.02;;;5.45;;
39968;SDS011;25648;47.808;19.004;2022-07-29T00:28:35;6.68;;;5.10;;
39968;SDS011;25648;47.808;19.004;2022-07-29T00:31:01;9.02;;;5.47;;
39968;SDS011;25648;47.808;19.004;2022-07-29T00:33:27;7.72;;;5.32;;
39968;SDS011;25648;47.808;19.004;2022-07-29T00:35:54;6.30;;;4.70;;
39968;SDS011;25648;47.808;19.004;2022-07-29T00:38:19;7.38;;;4.95;;
39968;SDS011;25648;47.808;19.004;2022-07-29T00:40:45;6.70;;;5.40;;
39968;SDS011;25648;47.808;19.004;2022-07-29T00:43:12;7.07;;;5.25;;
39968;SDS011;25648;47.808;19.004;2022-07-29T00:45:38;6.70;;;5.55;;
39968;SDS011;25648;47.808;19.004;2022-07-29T00:48:05;6.60;;;5.20;;
39968;SDS011;25648;47.808;19.004;2022-07-29T00:50:31;6.55;;;4.88;;
39968;SDS011;25648;47.808;19.004;2022-07-29T00:52:58;7.60;;;5.63;;
39968;SDS011;25648;47.808;19.004;2022-07-29T00:55:24;6.38;;;4.85;;
39968;SDS011;25648;47.808;19.004;2022-07-29T00:57:49;8.00;;;5.75;;
39968;SDS011;25648;47.808;19.004;2022-07-29T01:00:23;7.03;;;5.15;;
39968;SDS011;25648;47.808;19.004;2022-07-29T01:02:50;6.18;;;5.32;;
39968;SDS011;25648;47.808;19.004;2022-07-29T01:05:17;5.93;;;5.13;;
39968;SDS011;25648;47.808;19.004;2022-07-29T01:07:44;6.53;;;5.35;;
39968;SDS011;25648;47.808;19.004;2022-07-29T01:10:13;7.15;;;5.13;;
39968;SDS011;25648;47.808;19.004;2022-07-29T01:12:40;6.60;;;5.43;;
39968;SDS011;25648;47.808;19.004;2022-07-29T01:15:09;6.78;;;5.60;;
39968;SDS011;25648;47.808;19.004;2022-07-29T01:17:36;6.28;;;5.28;;
39968;SDS011;25648;47.808;19.004;2022-07-29T01:20:13;8.35;;;5.20;;
39968;SDS011;25648;47.808;19.004;2022-07-29T01:31:25;6.85;;;5.40;;
39968;SDS011;25648;47.808;19.004;2022-07-29T01:34:17;8.95;;;5.72;;
39968;SDS011;25648;47.808;19.004;2022-07-29T01:36:48;6.22;;;5.40;;
39968;SDS011;25648;47.808;19.004;2022-07-29T01:39:32;6.60;;;5.38;;
39968;SDS011;25648;47.808;19.004;2022-07-29T01:44:39;5.95;;;5.30;;
39968;SDS011;25648;47.808;19.004;2022-07-29T01:47:12;8.48;;;5.68;;
39968;SDS011;25648;47.808;19.004;2022-07-29T01:49:46;6.70;;;5.40;;
39968;SDS011;25648;47.808;19.004;2022-07-29T01:54:51;8.18;;;5.85;;
39968;SDS011;25648;47.808;19.004;2022-07-29T01:57:21;7.85;;;5.60;;
39968;SDS011;25648;47.808;19.004;2022-07-29T01:59:52;6.50;;;5.55;;
39968;SDS011;25648;47.808;19.004;2022-07-29T02:02:19;5.97;;;5.25;;
39968;SDS011;25648;47.808;19.004;2022-07-29T02:04:47;6.95;;;5.20;;
39968;SDS011;25648;47.808;19.004;2022-07-29T02:07:15;6.75;;;5.50;;
39968;SDS011;25648;47.808;19.004;2022-07-29T02:09:44;6.47;;;4.95;;
39968;SDS011;25648;47.808;19.004;2022-07-29T02:12:12;6.90;;;5.53;;
39968;SDS011;25648;47.808;19.004;2022-07-29T02:14:43;8.40;;;5.90;;
39968;SDS011;25648;47.808;19.004;2022-07-29T02:17:12;7.35;;;5.82;;
39968;SDS011;25648;47.808;19.004;2022-07-29T02:19:41;7.15;;;6.10;;
39968;SDS011;25648;47.808;19.004;2022-07-29T02:22:09;9.15;;;6.05;;
39968;SDS011;25648;47.808;19.004;2022-07-29T02:24:37;7.13;;;5.65;;
39968;SDS011;25648;47.808;19.004;2022-07-29T02:27:05;7.18;;;5.80;;
39968;SDS011;25648;47.808;19.004;2022-07-29T02:29:32;6.88;;;6.03;;
39968;SDS011;25648;47.808;19.004;2022-07-29T02:32:00;6.95;;;6.20;;
39968;SDS011;25648;47.808;19.004;2022-07-29T02:34:28;6.60;;;5.93;;
39968;SDS011;25648;47.808;19.004;2022-07-29T02:36:55;6.88;;;5.93;;
39968;SDS011;25648;47.808;19.004;2022-07-29T02:39:21;10.40;;;5.50;;
39968;SDS011;25648;47.808;19.004;2022-07-29T02:41:52;7.22;;;6.22;;
39968;SDS011;25648;47.808;19.004;2022-07-29T02:44:24;6.97;;;6.10;;
39968;SDS011;25648;47.808;19.004;2022-07-29T02:46:52;9.15;;;6.43;;
39968;SDS011;25648;47.808;19.004;2022-07-29T02:54:39;8.52;;;6.47;;
39968;SDS011;25648;47.808;19.004;2022-07-29T02:57:14;6.88;;;6.18;;
39968;SDS011;25648;47.808;19.004;2022-07-29T02:59:47;7.40;;;6.35;;
39968;SDS011;25648;47.808;19.004;2022-07-29T03:02:16;7.22;;;6.28;;
39968;SDS011;25648;47.808;19.004;2022-07-29T03:04:43;8.40;;;6.70;;
39968;SDS011;25648;47.808;19.004;2022-07-29T03:07:12;7.68;;;6.00;;
39968;SDS011;25648;47.808;19.004;2022-07-29T03:09:40;7.05;;;6.35;;
39968;SDS011;25648;47.808;19.004;2022-07-29T03:12:07;8.63;;;6.50;;
39968;SDS011;25648;47.808;19.004;2022-07-29T03:14:34;7.00;;;6.07;;
39968;SDS011;25648;47.808;19.004;2022-07-29T03:17:00;7.30;;;5.90;;
39968;SDS011;25648;47.808;19.004;2022-07-29T03:19:27;7.55;;;6.40;;
39968;SDS011;25648;47.808;19.004;2022-07-29T03:21:55;7.45;;;6.43;;
39968;SDS011;25648;47.808;19.004;2022-07-29T03:24:25;6.68;;;5.95;;
39968;SDS011;25648;47.808;19.004;2022-07-29T03:26:51;7.68;;;6.53;;
39968;SDS011;25648;47.808;19.004;2022-07-29T03:29:17;7.15;;;6.35;;
39968;SDS011;25648;47.808;19.004;2022-07-29T03:31:42;7.43;;;6.20;;
39968;SDS011;25648;47.808;19.004;2022-07-29T03:34:08;7.57;;;6.43;;
39968;SDS011;25648;47.808;19.004;2022-07-29T03:36:34;10.80;;;6.63;;
39968;SDS011;25648;47.808;19.004;2022-07-29T03:38:59;9.38;;;6.60;;
39968;SDS011;25648;47.808;19.004;2022-07-29T03:41:27;7.63;;;6.45;;
39968;SDS011;25648;47.808;19.004;2022-07-29T03:43:54;8.95;;;5.85;;
39968;SDS011;25648;47.808;19.004;2022-07-29T03:46:22;8.27;;;6.32;;
39968;SDS011;25648;47.808;19.004;2022-07-29T03:48:48;7.60;;;5.82;;
39968;SDS011;25648;47.808;19.004;2022-07-29T03:51:17;7.78;;;6.00;;
39968;SDS011;25648;47.808;19.004;2022-07-29T03:53:43;7.55;;;6.32;;
39968;SDS011;25648;47.808;19.004;2022-07-29T03:56:09;7.93;;;6.20;;
39968;SDS011;25648;47.808;19.004;2022-07-29T03:58:40;12.05;;;6.70;;
39968;SDS011;25648;47.808;19.004;2022-07-29T04:01:06;9.80;;;6.25;;
39968;SDS011;25648;47.808;19.004;2022-07-29T04:03:33;11.20;;;6.40;;
39968;SDS011;25648;47.808;19.004;2022-07-29T04:06:03;7.65;;;6.05;;
39968;SDS011;25648;47.808;19.004;2022-07-29T04:08:33;7.55;;;5.47;;
39968;SDS011;25648;47.808;19.004;2022-07-29T04:11:00;6.53;;;5.47;;
39968;SDS011;25648;47.808;19.004;2022-07-29T04:13:26;7.38;;;5.55;;
39968;SDS011;25648;47.808;19.004;2022-07-29T04:15:51;7.38;;;6.22;;
39968;SDS011;25648;47.808;19.004;2022-07-29T04:18:17;7.57;;;5.78;;
39968;SDS011;25648;47.808;19.004;2022-07-29T04:20:43;7.07;;;5.55;;
39968;SDS011;25648;47.808;19.004;2022-07-29T04:23:09;6.97;;;5.80;;
39968;SDS011;25648;47.808;19.004;2022-07-29T04:25:38;6.60;;;5.82;;
39968;SDS011;25648;47.808;19.004;2022-07-29T04:28:07;7.93;;;5.57;;
39968;SDS011;25648;47.808;19.004;2022-07-29T04:30:34;6.35;;;5.15;;
39968;SDS011;25648;47.808;19.004;2022-07-29T04:33:01;6.50;;;5.20;;
39968;SDS011;25648;47.808;19.004;2022-07-29T04:35:28;7.07;;;4.88;;
39968;SDS011;25648;47.808;19.004;2022-07-29T04:37:54;6.25;;;5.18;;
39968;SDS011;25648;47.808;19.004;2022-07-29T04:40:20;10.63;;;5.55;;
39968;SDS011;25648;47.808;19.004;2022-07-29T04:42:46;6.57;;;5.50;;
39968;SDS011;25648;47.808;19.004;2022-07-29T04:45:11;6.13;;;5.15;;
39968;SDS011;25648;47.808;19.004;2022-07-29T04:47:37;6.93;;;5.18;;
39968;SDS011;25648;47.808;19.004;2022-07-29T04:50:03;6.25;;;5.05;;
39968;SDS011;25648;47.808;19.004;2022-07-29T04:52:30;6.57;;;5.00;;
39968;SDS011;25648;47.808;19.004;2022-07-29T04:54:55;6.28;;;5.30;;
39968;SDS011;25648;47.808;19.004;2022-07-29T04:57:21;6.95;;;5.25;;
39968;SDS011;25648;47.808;19.004;2022-07-29T04:59:47;6.38;;;4.88;;
39968;SDS011;25648;47.808;19.004;2022-07-29T05:02:13;7.10;;;5.15;;
39968;SDS011;25648;47.808;19.004;2022-07-29T05:04:39;12.43;;;5.60;;
39968;SDS011;25648;47.808;19.004;2022-07-29T05:07:05;8.85;;;5.18;;
39968;SDS011;25648;47.808;19.004;2022-07-29T05:09:30;11.05;;;5.40;;
39968;SDS011;25648;47.808;19.004;2022-07-29T05:11:57;6.47;;;4.80;;
39968;SDS011;25648;47.808;19.004;2022-07-29T05:14:23;6.15;;;5.32;;
39968;SDS011;25648;47.808;19.004;2022-07-29T05:16:49;8.55;;;5.20;;
39968;SDS011;25648;47.808;19.004;2022-07-29T05:19:16;7.53;;;5.18;;
39968;SDS011;25648;47.808;19.004;2022-07-29T05:21:42;10.48;;;5.28;;
39968;SDS011;25648;47.808;19.004;2022-07-29T05:24:09;8.88;;;5.35;;
39968;SDS011;25648;47.808;19.004;2022-07-29T05:26:35;5.53;;;4.80;;
39968;SDS011;25648;47.808;19.004;2022-07-29T05:29:01;7.00;;;4.90;;
39968;SDS011;25648;47.808;19.004;2022-07-29T05:31:26;5.95;;;5.07;;
39968;SDS011;25648;47.808;19.004;2022-07-29T05:33:52;7.43;;;5.00;;
39968;SDS011;25648;47.808;19.004;2022-07-29T05:36:18;6.70;;;5.18;;
39968;SDS011;25648;47.808;19.004;2022-07-29T05:38:43;7.43;;;4.90;;
39968;SDS011;25648;47.808;19.004;2022-07-29T05:41:09;6.78;;;4.75;;
39968;SDS011;25648;47.808;19.004;2022-07-29T05:43:35;6.50;;;5.50;;
39968;SDS011;25648;47.808;19.004;2022-07-29T05:46:01;6.72;;;4.75;;
39968;SDS011;25648;47.808;19.004;2022-07-29T05:48:26;5.90;;;4.68;;
39968;SDS011;25648;47.808;19.004;2022-07-29T05:50:52;8.85;;;5.05;;
39968;SDS011;25648;47.808;19.004;2022-07-29T05:53:18;5.80;;;5.00;;
39968;SDS011;25648;47.808;19.004;2022-07-29T05:55:44;9.93;;;5.25;;
39968;SDS011;25648;47.808;19.004;2022-07-29T05:58:09;6.15;;;4.75;;
39968;SDS011;25648;47.808;19.004;2022-07-29T06:00:35;6.75;;;4.75;;
39968;SDS011;25648;47.808;19.004;2022-07-29T06:03:01;7.30;;;4.57;;
39968;SDS011;25648;47.808;19.004;2022-07-29T06:05:27;6.82;;;4.90;;
39968;SDS011;25648;47.808;19.004;2022-07-29T06:07:52;5.57;;;4.70;;
39968;SDS011;25648;47.808;19.004;2022-07-29T06:10:18;8.02;;;5.30;;
39968;SDS011;25648;47.808;19.004;2022-07-29T06:12:44;12.82;;;5.45;;
39968;SDS011;25648;47.808;19.004;2022-07-29T06:15:10;11.15;;;5.00;;
39968;SDS011;25648;47.808;19.004;2022-07-29T06:17:35;7.00;;;4.80;;
39968;SDS011;25648;47.808;19.004;2022-07-29T06:20:02;5.65;;;4.82;;
39968;SDS011;25648;47.808;19.004;2022-07-29T06:22:28;5.85;;;5.05;;
39968;SDS011;25648;47.808;19.004;2022-07-29T06:24:54;6.18;;;4.60;;
39968;SDS011;25648;47.808;19.004;2022-07-29T06:27:20;5.57;;;4.40;;
39968;SDS011;25648;47.808;19.004;2022-07-29T06:29:46;6.15;;;4.70;;
39968;SDS011;25648;47.808;19.004;2022-07-29T06:32:12;6.00;;;4.80;;
39968;SDS011;25648;47.808;19.004;2022-07-29T06:34:37;6.63;;;4.80;;
39968;SDS011;25648;47.808;19.004;2022-07-29T06:37:07;8.02;;;4.82;;
39968;SDS011;25648;47.808;19.004;2022-07-29T06:39:36;5.85;;;4.65;;
39968;SDS011;25648;47.808;19.004;2022-07-29T06:42:04;8.43;;;4.80;;
39968;SDS011;25648;47.808;19.004;2022-07-29T06:44:31;7.35;;;4.93;;
39968;SDS011;25648;47.808;19.004;2022-07-29T06:46:58;8.02;;;4.80;;
39968;SDS011;25648;47.808;19.004;2022-07-29T06:49:24;6.78;;;4.85;;
39968;SDS011;25648;47.808;19.004;2022-07-29T06:51:51;10.00;;;5.10;;
39968;SDS011;25648;47.808;19.004;2022-07-29T06:54:17;6.60;;;5.45;;
39968;SDS011;25648;47.808;19.004;2022-07-29T06:56:43;7.68;;;4.85;;
39968;SDS011;25648;47.808;19.004;2022-07-29T06:59:09;6.80;;;4.70;;
39968;SDS011;25648;47.808;19.004;2022-07-29T07:01:37;8.55;;;5.20;;
39968;SDS011;25648;47.808;19.004;2022-07-29T07:04:04;6.90;;;4.90;;
39968;SDS011;25648;47.808;19.004;2022-07-29T07:06:30;7.30;;;4.68;;
39968;SDS011;25648;47.808;19.004;2022-07-29T07:08:56;5.68;;;4.80;;
39968;SDS011;25648;47.808;19.004;2022-07-29T07:11:22;6.10;;;4.78;;
39968;SDS011;25648;47.808;19.004;2022-07-29T07:13:47;6.10;;;4.60;;
39968;SDS011;25648;47.808;19.004;2022-07-29T07:16:13;6.25;;;4.90;;
39968;SDS011;25648;47.808;19.004;2022-07-29T07:18:39;6.00;;;5.13;;
39968;SDS011;25648;47.808;19.004;2022-07-29T07:21:05;8.00;;;4.90;;
39968;SDS011;25648;47.808;19.004;2022-07-29T07:23:31;7.60;;;5.40;;
39968;SDS011;25648;47.808;19.004;2022-07-29T07:25:59;6.35;;;5.18;;
39968;SDS011;25648;47.808;19.004;2022-07-29T07:28:25;5.82;;;4.68;;
39968;SDS011;25648;47.808;19.004;2022-07-29T07:30:51;9.13;;;5.10;;
39968;SDS011;25648;47.808;19.004;2022-07-29T07:33:16;11.32;;;5.32;;
39968;SDS011;25648;47.808;19.004;2022-07-29T07:35:43;8.50;;;5.25;;
39968;SDS011;25648;47.808;19.004;2022-07-29T07:38:09;7.22;;;5.10;;
39968;SDS011;25648;47.808;19.004;2022-07-29T07:40:34;6.90;;;4.78;;
39968;SDS011;25648;47.808;19.004;2022-07-29T07:43:00;6.25;;;5.10;;
39968;SDS011;25648;47.808;19.004;2022-07-29T07:45:26;8.25;;;5.10;;
39968;SDS011;25648;47.808;19.004;2022-07-29T07:47:52;8.05;;;5.18;;
39968;SDS011;25648;47.808;19.004;2022-07-29T07:50:18;7.22;;;5.10;;
39968;SDS011;25648;47.808;19.004;2022-07-29T07:52:51;6.28;;;4.90;;
39968;SDS011;25648;47.808;19.004;2022-07-29T07:55:19;7.45;;;5.10;;
39968;SDS011;25648;47.808;19.004;2022-07-29T07:57:46;8.70;;;5.15;;
39968;SDS011;25648;47.808;19.004;2022-07-29T08:00:12;8.48;;;5.30;;
39968;SDS011;25648;47.808;19.004;2022-07-29T08:02:39;7.75;;;4.80;;
39968;SDS011;25648;47.808;19.004;2022-07-29T08:05:06;7.30;;;4.95;;
39968;SDS011;25648;47.808;19.004;2022-07-29T08:07:32;7.22;;;4.88;;
39968;SDS011;25648;47.808;19.004;2022-07-29T08:09:59;7.88;;;5.35;;
39968;SDS011;25648;47.808;19.004;2022-07-29T08:12:24;12.48;;;5.28;;
39968;SDS011;25648;47.808;19.004;2022-07-29T08:14:50;5.95;;;4.93;;
39968;SDS011;25648;47.808;19.004;2022-07-29T08:17:16;7.53;;;5.22;;
39968;SDS011;25648;47.808;19.004;2022-07-29T08:19:42;8.40;;;5.30;;
39968;SDS011;25648;47.808;19.004;2022-07-29T08:22:07;9.90;;;5.32;;
39968;SDS011;25648;47.808;19.004;2022-07-29T08:24:33;8.20;;;4.88;;
39968;SDS011;25648;47.808;19.004;2022-07-29T08:27:08;9.63;;;5.03;;
39968;SDS011;25648;47.808;19.004;2022-07-29T08:29:35;8.93;;;5.13;;
39968;SDS011;25648;47.808;19.004;2022-07-29T08:32:00;6.38;;;4.65;;
39968;SDS011;25648;47.808;19.004;2022-07-29T08:34:26;7.72;;;5.20;;
39968;SDS011;25648;47.808;19.004;2022-07-29T08:36:53;10.85;;;5.50;;
39968;SDS011;25648;47.808;19.004;2022-07-29T08:39:20;9.02;;;5.10;;
39968;SDS011;25648;47.808;19.004;2022-07-29T08:41:46;10.57;;;4.85;;
39968;SDS011;25648;47.808;19.004;2022-07-29T08:44:12;6.75;;;4.90;;
39968;SDS011;25648;47.808;19.004;2022-07-29T08:46:40;8.52;;;5.57;;
39968;SDS011;25648;47.808;19.004;2022-07-29T08:49:06;7.70;;;5.07;;
39968;SDS011;25648;47.808;19.004;2022-07-29T08:51:32;7.38;;;5.00;;
39968;SDS011;25648;47.808;19.004;2022-07-29T08:54:00;9.30;;;5.28;;
39968;SDS011;25648;47.808;19.004;2022-07-29T08:56:27;8.55;;;4.90;;
39968;SDS011;25648;47.808;19.004;2022-07-29T08:58:57;9.47;;;4.80;;
39968;SDS011;25648;47.808;19.004;2022-07-29T09:01:24;7.25;;;4.72;;
39968;SDS011;25648;47.808;19.004;2022-07-29T09:03:55;12.80;;;5.60;;
39968;SDS011;25648;47.808;19.004;2022-07-29T09:06:21;7.95;;;5.03;;
39968;SDS011;25648;47.808;19.004;2022-07-29T09:08:52;6.63;;;5.07;;
39968;SDS011;25648;47.808;19.004;2022-07-29T09:11:19;9.77;;;4.55;;
39968;SDS011;25648;47.808;19.004;2022-07-29T09:13:46;7.25;;;4.93;;
39968;SDS011;25648;47.808;19.004;2022-07-29T09:16:14;13.93;;;4.70;;
39968;SDS011;25648;47.808;19.004;2022-07-29T09:18:41;11.18;;;4.45;;
39968;SDS011;25648;47.808;19.004;2022-07-29T09:21:09;10.68;;;4.82;;
39968;SDS011;25648;47.808;19.004;2022-07-29T09:23:59;11.55;;;5.03;;
39968;SDS011;25648;47.808;19.004;2022-07-29T09:26:34;6.20;;;4.47;;
39968;SDS011;25648;47.808;19.004;2022-07-29T09:29:12;6.55;;;4.45;;
39968;SDS011;25648;47.808;19.004;2022-07-29T09:34:13;10.82;;;4.70;;
39968;SDS011;25648;47.808;19.004;2022-07-29T09:36:40;5.30;;;4.40;;
39968;SDS011;25648;47.808;19.004;2022-07-29T09:39:11;6.50;;;4.32;;
39968;SDS011;25648;47.808;19.004;2022-07-29T09:41:48;7.28;;;4.65;;
39968;SDS011;25648;47.808;19.004;2022-07-29T09:44:14;7.72;;;3.97;;
39968;SDS011;25648;47.808;19.004;2022-07-29T09:46:40;9.55;;;4.65;;
39968;SDS011;25648;47.808;19.004;2022-07-29T09:49:17;5.35;;;4.22;;
39968;SDS011;25648;47.808;19.004;2022-07-29T09:51:43;16.38;;;4.45;;
39968;SDS011;25648;47.808;19.004;2022-07-29T09:54:21;7.50;;;3.97;;
39968;SDS011;25648;47.808;19.004;2022-07-29T09:56:54;7.65;;;4.32;;
39968;SDS011;25648;47.808;19.004;2022-07-29T09:59:20;5.53;;;4.05;;
39968;SDS011;25648;47.808;19.004;2022-07-29T10:01:49;7.18;;;4.28;;
39968;SDS011;25648;47.808;19.004;2022-07-29T10:04:15;7.13;;;4.50;;
39968;SDS011;25648;47.808;19.004;2022-07-29T10:07:00;5.78;;;4.00;;
39968;SDS011;25648;47.808;19.004;2022-07-29T10:09:30;4.97;;;4.07;;
39968;SDS011;25648;47.808;19.004;2022-07-29T10:12:04;5.00;;;4.05;;
39968;SDS011;25648;47.808;19.004;2022-07-29T10:14:32;6.75;;;4.47;;
39968;SDS011;25648;47.808;19.004;2022-07-29T10:17:02;6.85;;;4.00;;
39968;SDS011;25648;47.808;19.004;2022-07-29T10:21:56;6.93;;;3.83;;
39968;SDS011;25648;47.808;19.004;2022-07-29T10:24:26;7.15;;;3.70;;
39968;SDS011;25648;47.808;19.004;2022-07-29T10:26:56;8.07;;;3.50;;
39968;SDS011;25648;47.808;19.004;2022-07-29T10:29:25;7.97;;;4.07;;
39968;SDS011;25648;47.808;19.004;2022-07-29T10:43:31;5.03;;;3.90;;
39968;SDS011;25648;47.808;19.004;2022-07-29T10:46:01;11.35;;;3.90;;
39968;SDS011;25648;47.808;19.004;2022-07-29T10:48:28;7.50;;;3.60;;
39968;SDS011;25648;47.808;19.004;2022-07-29T10:50:55;7.57;;;3.80;;
39968;SDS011;25648;47.808;19.004;2022-07-29T11:01:43;7.28;;;3.85;;
39968;SDS011;25648;47.808;19.004;2022-07-29T11:04:09;6.72;;;4.13;;
39968;SDS011;25648;47.808;19.004;2022-07-29T11:09:27;8.15;;;3.75;;
39968;SDS011;25648;47.808;19.004;2022-07-29T11:11:54;6.20;;;3.60;;
39968;SDS011;25648;47.808;19.004;2022-07-29T11:17:17;8.07;;;3.80;;
39968;SDS011;25648;47.808;19.004;2022-07-29T11:19:43;7.28;;;3.78;;
39968;SDS011;25648;47.808;19.004;2022-07-29T11:22:30;8.07;;;3.78;;
39968;SDS011;25648;47.808;19.004;2022-07-29T11:25:17;5.93;;;3.83;;
39968;SDS011;25648;47.808;19.004;2022-07-29T11:27:44;5.82;;;3.63;;
39968;SDS011;25648;47.808;19.004;2022-07-29T11:30:10;6.05;;;3.65;;
39968;SDS011;25648;47.808;19.004;2022-07-29T11:32:37;6.97;;;3.20;;
39968;SDS011;25648;47.808;19.004;2022-07-29T11:35:23;5.28;;;3.60;;
39968;SDS011;25648;47.808;19.004;2022-07-29T11:41:18;5.53;;;3.70;;
39968;SDS011;25648;47.808;19.004;2022-07-29T11:43:55;5.15;;;3.42;;
39968;SDS011;25648;47.808;19.004;2022-07-29T11:46:43;4.78;;;3.58;;
39968;SDS011;25648;47.808;19.004;2022-07-29T11:49:23;5.40;;;3.40;;
39968;SDS011;25648;47.808;19.004;2022-07-29T11:51:50;9.52;;;3.72;;
39968;SDS011;25648;47.808;19.004;2022-07-29T11:54:21;6.68;;;3.67;;
39968;SDS011;25648;47.808;19.004;2022-07-29T11:56:57;7.10;;;3.88;;
39968;SDS011;25648;47.808;19.004;2022-07-29T11:59:24;6.18;;;3.83;;
39968;SDS011;25648;47.808;19.004;2022-07-29T12:01:54;5.65;;;3.42;;
39968;SDS011;25648;47.808;19.004;2022-07-29T12:04:24;6.32;;;4.03;;
39968;SDS011;25648;47.808;19.004;2022-07-29T12:06:51;7.25;;;3.60;;
39968;SDS011;25648;47.808;19.004;2022-07-29T12:09:18;4.60;;;3.55;;
39968;SDS011;25648;47.808;19.004;2022-07-29T12:11:45;5.20;;;3.72;;
39968;SDS011;25648;47.808;19.004;2022-07-29T12:14:27;7.68;;;3.80;;
39968;SDS011;25648;47.808;19.004;2022-07-29T12:16:53;4.63;;;3.55;;
39968;SDS011;25648;47.808;19.004;2022-07-29T12:19:19;8.52;;;3.80;;
39968;SDS011;25648;47.808;19.004;2022-07-29T12:21:45;6.82;;;3.72;;
39968;SDS011;25648;47.808;19.004;2022-07-29T12:24:12;7.20;;;3.60;;
39968;SDS011;25648;47.808;19.004;2022-07-29T12:26:48;5.13;;;3.40;;
39968;SDS011;25648;47.808;19.004;2022-07-29T12:29:18;5.00;;;3.53;;
39968;SDS011;25648;47.808;19.004;2022-07-29T12:31:44;7.32;;;3.85;;
39968;SDS011;25648;47.808;19.004;2022-07-29T12:34:15;7.22;;;3.72;;
39968;SDS011;25648;47.808;19.004;2022-07-29T12:36:41;5.82;;;3.67;;
39968;SDS011;25648;47.808;19.004;2022-07-29T12:39:08;4.45;;;3.50;;
39968;SDS011;25648;47.808;19.004;2022-07-29T12:41:35;6.47;;;3.80;;
39968;SDS011;25648;47.808;19.004;2022-07-29T12:44:01;8.68;;;3.83;;
39968;SDS011;25648;47.808;19.004;2022-07-29T12:46:27;8.15;;;4.10;;
39968;SDS011;25648;47.808;19.004;2022-07-29T12:48:53;9.60;;;3.50;;
39968;SDS011;25648;47.808;19.004;2022-07-29T12:51:31;7.50;;;3.80;;
39968;SDS011;25648;47.808;19.004;2022-07-29T12:54:05;9.65;;;3.97;;
39968;SDS011;25648;47.808;19.004;2022-07-29T12:56:32;6.18;;;3.50;;
39968;SDS011;25648;47.808;19.004;2022-07-29T12:58:58;4.53;;;3.50;;
39968;SDS011;25648;47.808;19.004;2022-07-29T13:01:24;8.07;;;3.60;;
39968;SDS011;25648;47.808;19.004;2022-07-29T13:06:29;5.78;;;3.60;;
39968;SDS011;25648;47.808;19.004;2022-07-29T13:11:44;4.75;;;3.10;;
39968;SDS011;25648;47.808;19.004;2022-07-29T13:17:09;8.32;;;3.33;;
39968;SDS011;25648;47.808;19.004;2022-07-29T13:19:41;4.65;;;3.50;;
39968;SDS011;25648;47.808;19.004;2022-07-29T13:22:09;10.73;;;3.80;;
39968;SDS011;25648;47.808;19.004;2022-07-29T13:24:45;8.63;;;3.72;;
39968;SDS011;25648;47.808;19.004;2022-07-29T13:27:20;6.70;;;3.60;;
39968;SDS011;25648;47.808;19.004;2022-07-29T13:29:54;5.43;;;3.47;;
39968;SDS011;25648;47.808;19.004;2022-07-29T13:32:22;4.93;;;3.30;;
39968;SDS011;25648;47.808;19.004;2022-07-29T13:37:16;6.57;;;3.50;;
39968;SDS011;25648;47.808;19.004;2022-07-29T13:39:43;5.78;;;3.80;;
39968;SDS011;25648;47.808;19.004;2022-07-29T13:42:09;5.85;;;3.65;;
39968;SDS011;25648;47.808;19.004;2022-07-29T13:44:38;6.53;;;3.80;;
39968;SDS011;25648;47.808;19.004;2022-07-29T13:47:07;5.88;;;3.60;;
39968;SDS011;25648;47.808;19.004;2022-07-29T13:49:33;5.70;;;3.80;;
39968;SDS011;25648;47.808;19.004;2022-07-29T13:51:59;7.25;;;3.72;;
39968;SDS011;25648;47.808;19.004;2022-07-29T13:54:25;4.90;;;3.08;;
39968;SDS011;25648;47.808;19.004;2022-07-29T13:56:51;5.45;;;3.70;;
39968;SDS011;25648;47.808;19.004;2022-07-29T13:59:17;4.95;;;3.45;;
39968;SDS011;25648;47.808;19.004;2022-07-29T14:01:43;16.70;;;4.07;;
39968;SDS011;25648;47.808;19.004;2022-07-29T14:04:09;10.68;;;3.60;;
39968;SDS011;25648;47.808;19.004;2022-07-29T14:06:36;5.35;;;3.45;;
39968;SDS011;25648;47.808;19.004;2022-07-29T14:09:03;5.43;;;3.35;;
39968;SDS011;25648;47.808;19.004;2022-07-29T14:11:31;4.78;;;3.40;;
39968;SDS011;25648;47.808;19.004;2022-07-29T14:13:57;5.97;;;3.80;;
39968;SDS011;25648;47.808;19.004;2022-07-29T14:16:23;8.82;;;3.60;;
39968;SDS011;25648;47.808;19.004;2022-07-29T14:18:48;5.85;;;3.90;;
39968;SDS011;25648;47.808;19.004;2022-07-29T14:21:14;5.75;;;3.60;;
39968;SDS011;25648;47.808;19.004;2022-07-29T14:23:40;4.93;;;3.70;;
39968;SDS011;25648;47.808;19.004;2022-07-29T14:26:06;8.30;;;4.13;;
39968;SDS011;25648;47.808;19.004;2022-07-29T14:28:31;10.77;;;3.80;;
39968;SDS011;25648;47.808;19.004;2022-07-29T14:30:57;12.68;;;4.25;;
39968;SDS011;25648;47.808;19.004;2022-07-29T14:33:23;9.63;;;4.20;;
39968;SDS011;25648;47.808;19.004;2022-07-29T14:35:48;12.38;;;3.85;;
39968;SDS011;25648;47.808;19.004;2022-07-29T14:38:14;13.40;;;4.32;;
39968;SDS011;25648;47.808;19.004;2022-07-29T14:40:40;10.52;;;3.78;;
39968;SDS011;25648;47.808;19.004;2022-07-29T14:43:06;11.05;;;4.15;;
39968;SDS011;25648;47.808;19.004;2022-07-29T14:45:31;11.00;;;3.88;;
39968;SDS011;25648;47.808;19.004;2022-07-29T14:47:57;6.13;;;3.70;;
39968;SDS011;25648;47.808;19.004;2022-07-29T14:50:25;5.15;;;3.67;;
39968;SDS011;25648;47.808;19.004;2022-07-29T14:52:51;7.03;;;3.63;;
39968;SDS011;25648;47.808;19.004;2022-07-29T14:55:17;4.40;;;3.58;;
39968;SDS011;25648;47.808;19.004;2022-07-29T14:57:43;7.35;;;3.90;;
39968;SDS011;25648;47.808;19.004;2022-07-29T15:00:09;7.03;;;3.83;;
39968;SDS011;25648;47.808;19.004;2022-07-29T15:02:36;8.77;;;3.80;;
39968;SDS011;25648;47.808;19.004;2022-07-29T15:05:02;7.93;;;3.70;;
39968;SDS011;25648;47.808;19.004;2022-07-29T15:07:28;6.47;;;3.60;;
39968;SDS011;25648;47.808;19.004;2022-07-29T15:09:53;6.88;;;3.70;;
39968;SDS011;25648;47.808;19.004;2022-07-29T15:12:19;10.65;;;4.10;;
39968;SDS011;25648;47.808;19.004;2022-07-29T15:14:45;5.90;;;3.63;;
39968;SDS011;25648;47.808;19.004;2022-07-29T15:17:10;8.32;;;3.88;;
39968;SDS011;25648;47.808;19.004;2022-07-29T15:19:36;4.85;;;3.45;;
39968;SDS011;25648;47.808;19.004;2022-07-29T15:22:02;6.22;;;3.42;;
39968;SDS011;25648;47.808;19.004;2022-07-29T15:24:29;5.85;;;3.30;;
39968;SDS011;25648;47.808;19.004;2022-07-29T15:26:55;6.00;;;3.42;;
39968;SDS011;25648;47.808;19.004;2022-07-29T15:29:21;5.60;;;3.47;;
39968;SDS011;25648;47.808;19.004;2022-07-29T15:31:47;6.18;;;3.38;;
39968;SDS011;25648;47.808;19.004;2022-07-29T15:34:13;8.85;;;3.80;;
39968;SDS011;25648;47.808;19.004;2022-07-29T15:36:39;4.43;;;3.40;;
39968;SDS011;25648;47.808;19.004;2022-07-29T15:39:05;7.18;;;3.50;;
39968;SDS011;25648;47.808;19.004;2022-07-29T15:41:30;6.35;;;3.55;;